CYMM

Fort McMurray Airport

Fort McMurray, Alberta, Canada
METAR CYMM 232300Z AUTO 10009KT 9SM OVC015 M09/M11 A3001 RMK SLP196
Observed Flight Rules
Jan-23 @ 23:00 UTC (29 minutes ago) Marginal Visual Flight Rules
Wind Visibility Clouds
100° at 9 knots 9 miles
  • Overcast at 1,500' AGL
Temperatures Readings
Current -9°C / 16°F
Dewpoint -11°C / 12°F
Humidity 86%
Altimeter 30.01" Hg
Pressure 1019.6 hPa
Elevation 369
METAR CYMM 232300Z AUTO 10009KT 9SM OVC015 M09/M11 A3001 RMK SLP196
Observed Flight Rules
Jan-23 @ 23:00 UTC
(29 minutes ago)
MVFR
Wind Visibility
100° at 9 knots 9 miles
Clouds
  • Overcast at 1,500' AGL
Temperature Dewpoint
-9°C / 16°F -11°C / 12°F
Humidity Altimeter Pressure
86% 30.01" Hg 1019.6 hPa